createdAt,value
2017-05-26T00:00:15.121Z,1016.3
2017-05-26T00:00:55.618Z,1016.31
2017-05-26T00:01:36.128Z,1016.3
2017-05-26T00:02:16.631Z,1016.32
2017-05-26T00:02:57.161Z,1016.3
2017-05-26T00:03:37.637Z,1016.3
2017-05-26T00:04:18.141Z,1016.29
2017-05-26T00:04:58.677Z,1016.28
2017-05-26T00:05:39.189Z,1016.31
2017-05-26T00:06:19.691Z,1016.29
2017-05-26T00:07:00.204Z,1016.29
2017-05-26T00:07:40.722Z,1016.25
2017-05-26T00:08:21.238Z,1016.29
2017-05-26T00:09:01.761Z,1016.29
2017-05-26T00:09:42.272Z,1016.27
2017-05-26T00:10:22.764Z,1016.25
2017-05-26T00:11:03.263Z,1016.28
2017-05-26T00:11:43.777Z,1016.28
2017-05-26T00:12:24.301Z,1016.28
2017-05-26T00:13:04.812Z,1016.29
2017-05-26T00:13:45.334Z,1016.28
2017-05-26T00:14:25.863Z,1016.28
2017-05-26T00:15:06.356Z,1016.27
2017-05-26T00:15:46.859Z,1016.32
2017-05-26T00:16:27.440Z,1016.3
2017-05-26T00:17:07.961Z,1016.29
2017-05-26T00:17:48.460Z,1016.32
2017-05-26T00:18:28.994Z,1016.32
2017-05-26T00:19:09.533Z,1016.32
2017-05-26T00:19:50.074Z,1016.32
2017-05-26T00:20:30.610Z,1016.32
2017-05-26T00:21:11.124Z,1016.33
2017-05-26T00:21:51.645Z,1016.28
2017-05-26T00:22:32.159Z,1016.3
2017-05-26T00:23:12.710Z,1016.29
2017-05-26T00:23:53.292Z,1016.27
2017-05-26T00:24:33.813Z,1016.28
2017-05-26T00:25:14.362Z,1016.25
2017-05-26T00:25:54.879Z,1016.26
2017-05-26T00:26:35.432Z,1016.24
2017-05-26T00:27:15.959Z,1016.26
2017-05-26T00:27:56.503Z,1016.27
2017-05-26T00:28:37.032Z,1016.25
2017-05-26T00:29:17.536Z,1016.24
2017-05-26T00:29:58.047Z,1016.27
2017-05-26T00:30:38.558Z,1016.28
2017-05-26T00:31:19.081Z,1016.27
2017-05-26T00:31:59.592Z,1016.24
2017-05-26T00:32:40.149Z,1016.26
2017-05-26T00:33:20.677Z,1016.25
2017-05-26T00:34:01.199Z,1016.27
2017-05-26T00:34:41.723Z,1016.25
2017-05-26T00:35:22.209Z,1016.25
2017-05-26T00:36:02.731Z,1016.25
2017-05-26T00:36:43.232Z,1016.23
2017-05-26T00:37:23.753Z,1016.21
2017-05-26T00:38:04.277Z,1016.22
2017-05-26T00:38:44.804Z,1016.25
2017-05-26T00:39:25.338Z,1016.22
2017-05-26T00:40:05.863Z,1016.23
2017-05-26T00:40:46.382Z,1016.22
2017-05-26T00:41:26.882Z,1016.21
2017-05-26T00:42:07.362Z,1016.21
2017-05-26T00:42:47.875Z,1016.2
2017-05-26T00:43:28.410Z,1016.18
2017-05-26T00:44:08.975Z,1016.18
2017-05-26T00:44:49.520Z,1016.18
2017-05-26T00:45:30.063Z,1016.18
2017-05-26T00:46:10.649Z,1016.17
2017-05-26T00:46:51.187Z,1016.13
2017-05-26T00:47:31.727Z,1016.11
2017-05-26T00:48:12.237Z,1016.15
2017-05-26T00:48:52.745Z,1016.17
2017-05-26T00:49:33.243Z,1016.15
2017-05-26T00:50:13.745Z,1016.12
2017-05-26T00:50:54.269Z,1016.12
2017-05-26T00:51:34.780Z,1016.15
2017-05-26T00:52:15.307Z,1016.13
2017-05-26T00:52:55.838Z,1016.11
2017-05-26T00:53:36.378Z,1016.12
2017-05-26T00:54:16.907Z,1016.14
2017-05-26T00:54:57.420Z,1016.15
2017-05-26T00:55:37.896Z,1016.17
2017-05-26T00:56:18.443Z,1016.17
2017-05-26T00:56:58.954Z,1016.15
2017-05-26T00:57:39.478Z,1016.16
2017-05-26T00:58:19.971Z,1016.15
2017-05-26T00:59:00.469Z,1016.17
2017-05-26T00:59:40.980Z,1016.18
2017-05-26T01:00:21.507Z,1016.16
2017-05-26T01:01:02.032Z,1016.19
2017-05-26T01:01:42.575Z,1016.22
2017-05-26T01:02:23.080Z,1016.19
2017-05-26T01:03:03.637Z,1016.18
2017-05-26T01:03:44.161Z,1016.19
2017-05-26T01:04:24.724Z,1016.2
2017-05-26T01:05:05.218Z,1016.2
2017-05-26T01:05:45.722Z,1016.24
2017-05-26T01:06:26.271Z,1016.22
2017-05-26T01:07:06.774Z,1016.23
2017-05-26T01:07:47.294Z,1016.24
2017-05-26T01:08:27.879Z,1016.24
2017-05-26T01:09:08.399Z,1016.23
2017-05-26T01:09:48.945Z,1016.26
2017-05-26T01:10:29.485Z,1016.27
2017-05-26T01:11:10.023Z,1016.23
2017-05-26T01:11:50.566Z,1016.25
2017-05-26T01:12:31.136Z,1016.26
2017-05-26T01:13:11.653Z,1016.25
2017-05-26T01:13:52.170Z,1016.27
2017-05-26T01:14:32.695Z,1016.25
2017-05-26T01:15:13.209Z,1016.24
2017-05-26T01:15:53.704Z,1016.24
2017-05-26T01:16:34.200Z,1016.23
2017-05-26T01:17:14.691Z,1016.25
2017-05-26T01:17:55.195Z,1016.25
2017-05-26T01:18:35.695Z,1016.24
2017-05-26T01:19:16.205Z,1016.23
2017-05-26T01:19:56.694Z,1016.2
2017-05-26T01:20:37.217Z,1016.24
2017-05-26T01:21:17.722Z,1016.2
2017-05-26T01:21:58.235Z,1016.22
2017-05-26T01:22:38.750Z,1016.2
2017-05-26T01:23:19.267Z,1016.21
2017-05-26T01:23:59.893Z,1016.23
2017-05-26T01:24:40.255Z,1016.22
2017-05-26T01:25:20.750Z,1016.2
2017-05-26T01:26:01.278Z,1016.21
2017-05-26T01:26:41.790Z,1016.2
2017-05-26T01:27:22.297Z,1016.17
2017-05-26T01:28:02.794Z,1016.17
2017-05-26T01:28:43.296Z,1016.17
2017-05-26T01:29:23.821Z,1016.16
2017-05-26T01:30:04.351Z,1016.16
2017-05-26T01:30:44.885Z,1016.17
2017-05-26T01:31:25.424Z,1016.22
2017-05-26T01:32:05.976Z,1016.19
2017-05-26T01:32:46.507Z,1016.21
2017-05-26T01:33:27.037Z,1016.18
2017-05-26T01:34:07.582Z,1016.17
2017-05-26T01:34:48.124Z,1016.18
2017-05-26T01:35:28.650Z,1016.21
2017-05-26T01:36:09.182Z,1016.22
2017-05-26T01:36:49.749Z,1016.24
2017-05-26T01:37:30.269Z,1016.22
2017-05-26T01:38:10.812Z,1016.22
2017-05-26T01:38:51.310Z,1016.23
2017-05-26T01:39:31.834Z,1016.26
2017-05-26T01:40:12.315Z,1016.25
2017-05-26T01:40:52.823Z,1016.24
2017-05-26T01:41:33.342Z,1016.25
2017-05-26T01:42:13.854Z,1016.22
2017-05-26T01:42:54.373Z,1016.26
2017-05-26T01:43:34.885Z,1016.24
2017-05-26T01:44:15.396Z,1016.23
2017-05-26T01:44:55.943Z,1016.23
2017-05-26T01:45:36.474Z,1016.24
2017-05-26T01:46:17.010Z,1016.2
2017-05-26T01:46:57.549Z,1016.21
2017-05-26T01:47:38.056Z,1016.24
2017-05-26T01:48:18.567Z,1016.18
2017-05-26T01:48:59.082Z,1016.2
2017-05-26T01:49:39.639Z,1016.22
2017-05-26T01:50:20.201Z,1016.16
2017-05-26T01:51:00.717Z,1016.18
2017-05-26T01:51:41.212Z,1016.18
2017-05-26T01:52:21.721Z,1016.16
2017-05-26T01:53:02.250Z,1016.19
2017-05-26T01:53:42.763Z,1016.2
2017-05-26T01:54:23.290Z,1016.23
2017-05-26T01:55:03.844Z,1016.21
2017-05-26T01:55:44.361Z,1016.22
2017-05-26T01:56:24.919Z,1016.18
2017-05-26T01:57:05.412Z,1016.2
2017-05-26T01:57:45.960Z,1016.18
2017-05-26T01:58:26.501Z,1016.23
2017-05-26T01:59:07.008Z,1016.2
2017-05-26T01:59:47.558Z,1016.19
2017-05-26T02:00:28.103Z,1016.18
2017-05-26T02:01:08.652Z,1016.2
2017-05-26T02:01:49.171Z,1016.21
2017-05-26T02:02:29.705Z,1016.17
2017-05-26T02:03:10.247Z,1016.2
2017-05-26T02:03:50.792Z,1016.22
2017-05-26T02:04:31.352Z,1016.23
2017-05-26T02:05:11.870Z,1016.22
2017-05-26T02:05:52.404Z,1016.25
2017-05-26T02:06:32.945Z,1016.23
2017-05-26T02:07:13.519Z,1016.19
2017-05-26T02:07:54.036Z,1016.24
2017-05-26T02:08:34.582Z,1016.21
2017-05-26T02:09:15.110Z,1016.2
2017-05-26T02:09:55.662Z,1016.22
2017-05-26T02:10:36.178Z,1016.24
2017-05-26T02:11:16.726Z,1016.21
2017-05-26T02:11:57.213Z,1016.22
2017-05-26T02:12:37.716Z,1016.25
2017-05-26T02:13:18.267Z,1016.25
2017-05-26T02:13:58.749Z,1016.24
2017-05-26T02:14:39.274Z,1016.26
2017-05-26T02:15:19.774Z,1016.26
2017-05-26T02:16:00.277Z,1016.27
2017-05-26T02:16:40.785Z,1016.24
2017-05-26T02:17:21.287Z,1016.24
2017-05-26T02:18:01.785Z,1016.23
2017-05-26T02:18:42.314Z,1016.25
2017-05-26T02:19:22.811Z,1016.25
2017-05-26T02:20:03.325Z,1016.26
2017-05-26T02:20:43.839Z,1016.28
2017-05-26T02:21:24.372Z,1016.25
2017-05-26T02:22:04.848Z,1016.24
2017-05-26T02:22:45.383Z,1016.23
2017-05-26T02:23:25.913Z,1016.3
2017-05-26T02:24:06.405Z,1016.25
2017-05-26T02:24:46.902Z,1016.27
2017-05-26T02:25:27.416Z,1016.27
2017-05-26T02:26:07.924Z,1016.28
2017-05-26T02:26:48.489Z,1016.28
2017-05-26T02:27:29.006Z,1016.26
2017-05-26T02:28:09.526Z,1016.26
2017-05-26T02:28:50.050Z,1016.28
2017-05-26T02:29:30.578Z,1016.28
2017-05-26T02:30:11.102Z,1016.26
2017-05-26T02:30:51.598Z,1016.29
2017-05-26T02:31:32.116Z,1016.28
2017-05-26T02:32:12.615Z,1016.26
2017-05-26T02:32:53.134Z,1016.26
2017-05-26T02:33:33.637Z,1016.24
2017-05-26T02:34:14.146Z,1016.25
2017-05-26T02:34:54.637Z,1016.27
2017-05-26T02:35:35.212Z,1016.25
2017-05-26T02:36:15.677Z,1016.21
2017-05-26T02:36:56.223Z,1016.2
2017-05-26T02:37:36.715Z,1016.21
2017-05-26T02:38:17.255Z,1016.22
2017-05-26T02:38:57.810Z,1016.25
2017-05-26T02:39:38.322Z,1016.24
2017-05-26T02:40:18.830Z,1016.23
2017-05-26T02:40:59.350Z,1016.18
2017-05-26T02:41:39.887Z,1016.2
2017-05-26T02:42:20.382Z,1016.21
2017-05-26T02:43:00.862Z,1016.2
2017-05-26T02:43:41.404Z,1016.21
2017-05-26T02:44:21.898Z,1016.21
2017-05-26T02:45:02.406Z,1016.21
2017-05-26T02:45:42.930Z,1016.19
2017-05-26T02:46:23.475Z,1016.2
2017-05-26T02:47:03.969Z,1016.24
2017-05-26T02:47:44.493Z,1016.21
2017-05-26T02:48:25.047Z,1016.22
2017-05-26T02:49:05.560Z,1016.24
2017-05-26T02:49:46.123Z,1016.27
2017-05-26T02:50:26.672Z,1016.22
2017-05-26T02:51:07.214Z,1016.18
2017-05-26T02:51:47.730Z,1016.22
2017-05-26T02:52:28.256Z,1016.19
2017-05-26T02:53:08.807Z,1016.21
2017-05-26T02:53:49.350Z,1016.21
2017-05-26T02:54:29.888Z,1016.21
2017-05-26T02:55:10.417Z,1016.22
2017-05-26T02:55:50.929Z,1016.22
2017-05-26T02:56:31.477Z,1016.27
2017-05-26T02:57:12.006Z,1016.26
2017-05-26T02:57:52.563Z,1016.22
2017-05-26T02:58:33.095Z,1016.23
2017-05-26T02:59:13.624Z,1016.24
2017-05-26T02:59:54.169Z,1016.26
2017-05-26T03:00:34.705Z,1016.26
2017-05-26T03:01:15.268Z,1016.26
2017-05-26T03:01:55.779Z,1016.28
2017-05-26T03:02:36.278Z,1016.27
2017-05-26T03:03:16.831Z,1016.26
2017-05-26T03:03:57.335Z,1016.27
2017-05-26T03:04:37.842Z,1016.31
2017-05-26T03:05:18.354Z,1016.3
2017-05-26T03:05:58.862Z,1016.3
2017-05-26T03:06:39.403Z,1016.28
2017-05-26T03:07:19.958Z,1016.3
2017-05-26T03:08:00.487Z,1016.33
2017-05-26T03:08:41.046Z,1016.32
2017-05-26T03:09:21.503Z,1016.35
2017-05-26T03:10:02.014Z,1016.4
2017-05-26T03:10:42.508Z,1016.35
2017-05-26T03:11:23.046Z,1016.4
2017-05-26T03:12:03.576Z,1016.43
2017-05-26T03:12:44.123Z,1016.46
2017-05-26T03:13:24.644Z,1016.43
2017-05-26T03:14:05.153Z,1016.47
2017-05-26T03:14:45.675Z,1016.42
2017-05-26T03:15:26.187Z,1016.48
2017-05-26T03:16:06.726Z,1016.48
2017-05-26T03:16:47.268Z,1016.5
2017-05-26T03:17:27.819Z,1016.47
2017-05-26T03:18:08.370Z,1016.47
2017-05-26T03:18:48.920Z,1016.44
2017-05-26T03:19:29.485Z,1016.45
2017-05-26T03:20:10.021Z,1016.44
2017-05-26T03:20:50.531Z,1016.45
2017-05-26T03:21:31.040Z,1016.47
2017-05-26T03:22:11.558Z,1016.48
2017-05-26T03:22:52.092Z,1016.47
2017-05-26T03:23:32.603Z,1016.47
2017-05-26T03:24:13.091Z,1016.45
2017-05-26T03:24:53.596Z,1016.48
2017-05-26T03:25:34.128Z,1016.47
2017-05-26T03:26:14.588Z,1016.44
2017-05-26T03:26:55.114Z,1016.49
2017-05-26T03:27:35.621Z,1016.46
2017-05-26T03:28:16.111Z,1016.45
2017-05-26T03:28:56.627Z,1016.48
2017-05-26T03:29:37.137Z,1016.47
2017-05-26T03:30:17.617Z,1016.45
2017-05-26T03:30:58.113Z,1016.49
2017-05-26T03:31:38.659Z,1016.51
2017-05-26T03:32:19.154Z,1016.53
2017-05-26T03:32:59.649Z,1016.5
2017-05-26T03:33:40.171Z,1016.54
2017-05-26T03:34:20.671Z,1016.55
2017-05-26T03:35:01.205Z,1016.53
2017-05-26T03:35:41.697Z,1016.56
2017-05-26T03:36:22.229Z,1016.53
2017-05-26T03:37:02.764Z,1016.53
2017-05-26T03:37:43.293Z,1016.55
2017-05-26T03:38:23.819Z,1016.55
2017-05-26T03:39:04.354Z,1016.56
2017-05-26T03:39:44.850Z,1016.56
2017-05-26T03:40:25.344Z,1016.58
2017-05-26T03:41:05.853Z,1016.59
2017-05-26T03:41:46.364Z,1016.56
2017-05-26T03:42:26.858Z,1016.58
2017-05-26T03:43:07.354Z,1016.59
2017-05-26T03:43:47.873Z,1016.62
2017-05-26T03:44:28.431Z,1016.62
2017-05-26T03:45:08.879Z,1016.64
2017-05-26T03:45:49.373Z,1016.6
2017-05-26T03:46:29.888Z,1016.6
2017-05-26T03:47:10.408Z,1016.62
2017-05-26T03:47:50.974Z,1016.62
2017-05-26T03:48:31.513Z,1016.61
2017-05-26T03:49:12.055Z,1016.55
2017-05-26T03:49:52.589Z,1016.57
2017-05-26T03:50:33.130Z,1016.59
2017-05-26T03:51:13.681Z,1016.52
2017-05-26T03:51:54.259Z,1016.58
2017-05-26T03:52:34.750Z,1016.57
2017-05-26T03:53:15.296Z,1016.57
2017-05-26T03:53:55.810Z,1016.58
2017-05-26T03:54:36.317Z,1016.53
2017-05-26T03:55:16.812Z,1016.51
2017-05-26T03:55:57.332Z,1016.52
2017-05-26T03:56:37.836Z,1016.54
2017-05-26T03:57:18.349Z,1016.56
2017-05-26T03:57:58.851Z,1016.56
2017-05-26T03:58:39.376Z,1016.58
2017-05-26T03:59:19.846Z,1016.54
2017-05-26T04:00:00.353Z,1016.53
2017-05-26T04:00:40.877Z,1016.58
2017-05-26T04:01:21.388Z,1016.53
2017-05-26T04:02:01.902Z,1016.57
2017-05-26T04:02:42.435Z,1016.57
2017-05-26T04:03:22.999Z,1016.54
2017-05-26T04:04:03.479Z,1016.58
2017-05-26T04:04:43.978Z,1016.57
2017-05-26T04:05:24.529Z,1016.58
2017-05-26T04:06:05.038Z,1016.6
2017-05-26T04:06:45.561Z,1016.59
2017-05-26T04:07:26.097Z,1016.57
2017-05-26T04:08:06.632Z,1016.57
2017-05-26T04:08:47.179Z,1016.6
2017-05-26T04:09:27.737Z,1016.62
2017-05-26T04:10:08.258Z,1016.6
2017-05-26T04:10:48.861Z,1016.64
2017-05-26T04:11:29.400Z,1016.64
2017-05-26T04:12:09.943Z,1016.63
2017-05-26T04:12:50.479Z,1016.7
2017-05-26T04:13:31.011Z,1016.66
2017-05-26T04:14:11.589Z,1016.66
2017-05-26T04:14:52.141Z,1016.64
2017-05-26T04:15:32.705Z,1016.64
2017-05-26T04:16:13.209Z,1016.64
2017-05-26T04:16:53.759Z,1016.65
2017-05-26T04:17:34.294Z,1016.64
2017-05-26T04:18:14.832Z,1016.61
2017-05-26T04:18:55.345Z,1016.65
2017-05-26T04:19:35.839Z,1016.64
2017-05-26T04:20:16.352Z,1016.66
2017-05-26T04:20:56.841Z,1016.64
2017-05-26T04:21:37.374Z,1016.67
2017-05-26T04:22:17.900Z,1016.71
2017-05-26T04:22:58.413Z,1016.71
2017-05-26T04:23:38.921Z,1016.75
2017-05-26T04:24:19.458Z,1016.74
2017-05-26T04:24:59.995Z,1016.74
2017-05-26T04:25:40.524Z,1016.76
2017-05-26T04:26:21.009Z,1016.76
2017-05-26T04:27:01.518Z,1016.75
2017-05-26T04:27:42.042Z,1016.75
2017-05-26T04:28:22.543Z,1016.78
2017-05-26T04:29:03.049Z,1016.75
2017-05-26T04:29:43.581Z,1016.74
2017-05-26T04:30:24.094Z,1016.74
2017-05-26T04:31:04.608Z,1016.72
2017-05-26T04:31:45.147Z,1016.71
2017-05-26T04:32:25.682Z,1016.72
2017-05-26T04:33:06.222Z,1016.72
2017-05-26T04:33:46.762Z,1016.71
2017-05-26T04:34:27.303Z,1016.71
2017-05-26T04:35:07.814Z,1016.72
2017-05-26T04:35:48.351Z,1016.76
2017-05-26T04:36:28.900Z,1016.74
2017-05-26T04:37:09.435Z,1016.75
2017-05-26T04:37:49.965Z,1016.77
2017-05-26T04:38:30.463Z,1016.75
2017-05-26T04:39:10.962Z,1016.77
2017-05-26T04:39:51.481Z,1016.79
2017-05-26T04:40:32.013Z,1016.78
2017-05-26T04:41:12.522Z,1016.75
2017-05-26T04:41:53.020Z,1016.79
2017-05-26T04:42:33.537Z,1016.78
2017-05-26T04:43:14.057Z,1016.77
2017-05-26T04:43:54.603Z,1016.78
2017-05-26T04:44:35.117Z,1016.78
2017-05-26T04:45:15.607Z,1016.79
2017-05-26T04:45:56.130Z,1016.77
2017-05-26T04:46:36.618Z,1016.76
2017-05-26T04:47:17.120Z,1016.76
2017-05-26T04:47:57.618Z,1016.79
2017-05-26T04:48:38.128Z,1016.79
2017-05-26T04:49:18.644Z,1016.79
2017-05-26T04:49:59.147Z,1016.79
2017-05-26T04:50:39.644Z,1016.79
2017-05-26T04:51:20.182Z,1016.79
2017-05-26T04:52:00.697Z,1016.8
2017-05-26T04:52:41.222Z,1016.76
2017-05-26T04:53:21.751Z,1016.8
2017-05-26T04:54:02.252Z,1016.8
2017-05-26T04:54:42.765Z,1016.79
2017-05-26T04:55:23.273Z,1016.78
2017-05-26T04:56:03.789Z,1016.77
2017-05-26T04:56:44.312Z,1016.8
2017-05-26T04:57:24.868Z,1016.79
2017-05-26T04:58:05.386Z,1016.8
2017-05-26T04:58:45.928Z,1016.8
2017-05-26T04:59:26.474Z,1016.78
2017-05-26T05:00:07.007Z,1016.78
2017-05-26T05:00:47.521Z,1016.76
2017-05-26T05:01:28.068Z,1016.79
2017-05-26T05:02:08.619Z,1016.78
2017-05-26T05:02:49.129Z,1016.8
2017-05-26T05:03:29.660Z,1016.78
2017-05-26T05:04:10.216Z,1016.8
2017-05-26T05:04:50.757Z,1016.79
2017-05-26T05:05:31.280Z,1016.81
2017-05-26T05:06:11.825Z,1016.79
2017-05-26T05:06:52.353Z,1016.79
2017-05-26T05:07:32.918Z,1016.78
2017-05-26T05:08:13.447Z,1016.74
2017-05-26T05:08:53.981Z,1016.77
2017-05-26T05:09:34.509Z,1016.79
2017-05-26T05:10:15.059Z,1016.74
2017-05-26T05:10:55.614Z,1016.76
2017-05-26T05:11:36.160Z,1016.79
2017-05-26T05:12:16.681Z,1016.77
2017-05-26T05:12:57.224Z,1016.77
2017-05-26T05:13:37.748Z,1016.78
2017-05-26T05:14:18.247Z,1016.74
2017-05-26T05:14:58.779Z,1016.8
2017-05-26T05:15:39.271Z,1016.8
2017-05-26T05:16:19.777Z,1016.8
2017-05-26T05:17:00.264Z,1016.78
2017-05-26T05:17:40.769Z,1016.83
2017-05-26T05:18:21.275Z,1016.84
2017-05-26T05:19:01.808Z,1016.83
2017-05-26T05:19:42.307Z,1016.81
2017-05-26T05:20:22.835Z,1016.81
2017-05-26T05:21:03.335Z,1016.83
2017-05-26T05:21:43.851Z,1016.85
2017-05-26T05:22:24.399Z,1016.87
2017-05-26T05:23:04.980Z,1016.82
2017-05-26T05:23:45.502Z,1016.79
2017-05-26T05:24:26.078Z,1016.81
2017-05-26T05:25:06.610Z,1016.83
2017-05-26T05:25:47.152Z,1016.81
2017-05-26T05:26:27.775Z,1016.79
2017-05-26T05:27:08.333Z,1016.81
2017-05-26T05:27:48.875Z,1016.79
2017-05-26T05:28:29.419Z,1016.81
2017-05-26T05:29:09.918Z,1016.8
2017-05-26T05:29:50.426Z,1016.79
2017-05-26T05:30:30.917Z,1016.81
2017-05-26T05:31:11.427Z,1016.82
2017-05-26T05:31:51.944Z,1016.81
2017-05-26T05:32:32.450Z,1016.82
2017-05-26T05:33:12.954Z,1016.82
2017-05-26T05:33:53.480Z,1016.84
2017-05-26T05:34:33.955Z,1016.82
2017-05-26T05:35:14.467Z,1016.82
2017-05-26T05:35:54.987Z,1016.8
2017-05-26T05:36:35.490Z,1016.84
2017-05-26T05:37:16.034Z,1016.83
2017-05-26T05:37:56.569Z,1016.83
2017-05-26T05:38:37.089Z,1016.84
2017-05-26T05:39:17.592Z,1016.85
2017-05-26T05:39:58.109Z,1016.89
2017-05-26T05:40:38.628Z,1016.85
2017-05-26T05:41:19.200Z,1016.86
2017-05-26T05:41:59.690Z,1016.85
2017-05-26T05:42:40.212Z,1016.81
2017-05-26T05:43:20.710Z,1016.82
2017-05-26T05:44:01.239Z,1016.83
2017-05-26T05:44:41.769Z,1016.82
2017-05-26T05:45:22.306Z,1016.78
2017-05-26T05:46:02.821Z,1016.81
2017-05-26T05:46:43.334Z,1016.81
2017-05-26T05:47:23.880Z,1016.84
2017-05-26T05:48:04.390Z,1016.81
2017-05-26T05:48:44.935Z,1016.8
2017-05-26T05:51:14.408Z,1016.8
2017-05-26T05:51:54.941Z,1016.79
2017-05-26T05:52:35.482Z,1016.82
2017-05-26T05:53:16.016Z,1016.82
2017-05-26T05:53:56.560Z,1016.82
2017-05-26T05:54:37.095Z,1016.86
2017-05-26T05:55:17.636Z,1016.84
2017-05-26T05:55:58.174Z,1016.84
2017-05-26T05:56:38.696Z,1016.85
2017-05-26T05:57:19.263Z,1016.85
2017-05-26T05:57:59.738Z,1016.82
2017-05-26T05:58:40.262Z,1016.83
2017-05-26T05:59:20.796Z,1016.82
2017-05-26T06:00:01.319Z,1016.8
2017-05-26T06:00:41.841Z,1016.78
2017-05-26T06:01:22.362Z,1016.78
2017-05-26T06:02:02.875Z,1016.8
2017-05-26T06:02:43.417Z,1016.84
2017-05-26T06:03:23.942Z,1016.84
2017-05-26T06:04:04.463Z,1016.83
2017-05-26T06:04:45.006Z,1016.87
2017-05-26T06:05:25.546Z,1016.86
2017-05-26T06:06:06.076Z,1016.88
2017-05-26T06:06:46.614Z,1016.91
2017-05-26T06:07:27.141Z,1016.9
2017-05-26T06:08:07.682Z,1016.87
2017-05-26T06:08:48.209Z,1016.93
2017-05-26T06:09:28.752Z,1016.92
2017-05-26T06:10:09.288Z,1016.95
2017-05-26T06:10:49.829Z,1016.93
2017-05-26T06:11:30.371Z,1016.92
2017-05-26T06:12:10.903Z,1016.92
2017-05-26T06:12:51.440Z,1016.91
2017-05-26T06:13:31.992Z,1016.9
2017-05-26T06:14:12.532Z,1016.94
2017-05-26T06:14:53.079Z,1016.99
2017-05-26T06:15:33.615Z,1016.96
2017-05-26T06:16:14.157Z,1016.95
2017-05-26T06:16:54.686Z,1016.94
2017-05-26T06:17:35.246Z,1016.95
2017-05-26T06:18:15.788Z,1016.93
2017-05-26T06:18:56.328Z,1016.99
2017-05-26T06:19:36.862Z,1016.97
2017-05-26T06:20:17.369Z,1016.95
2017-05-26T06:20:57.871Z,1016.95
2017-05-26T06:21:38.386Z,1016.98
2017-05-26T06:22:18.906Z,1016.98
2017-05-26T06:22:59.436Z,1017
2017-05-26T06:23:39.924Z,1017.01
2017-05-26T06:24:20.435Z,1016.97
2017-05-26T06:25:02.740Z,1016.99
2017-05-26T06:25:43.275Z,1017.01
2017-05-26T06:26:23.795Z,1017.03
2017-05-26T06:27:04.315Z,1017
2017-05-26T06:27:44.834Z,1017
2017-05-26T06:28:25.370Z,1017
2017-05-26T06:29:05.897Z,1016.99
2017-05-26T06:29:46.431Z,1016.98
2017-05-26T06:30:26.927Z,1016.97
2017-05-26T06:31:07.447Z,1017
2017-05-26T06:31:47.963Z,1016.95
2017-05-26T06:32:28.492Z,1016.99
2017-05-26T06:33:09.051Z,1016.99
2017-05-26T06:33:49.579Z,1017
2017-05-26T06:34:30.101Z,1017
2017-05-26T06:35:10.636Z,1017
2017-05-26T06:35:51.151Z,1017
2017-05-26T06:36:31.673Z,1017.01
2017-05-26T06:37:12.197Z,1016.94
2017-05-26T06:37:52.707Z,1016.93
2017-05-26T06:38:33.233Z,1016.98
2017-05-26T06:39:13.782Z,1016.97
2017-05-26T06:39:54.330Z,1016.95
2017-05-26T06:40:34.867Z,1016.98
2017-05-26T06:41:15.409Z,1016.98
2017-05-26T06:41:55.952Z,1016.98
2017-05-26T06:42:36.505Z,1016.97
2017-05-26T06:43:17.063Z,1016.98
2017-05-26T06:43:57.572Z,1016.98
2017-05-26T06:44:38.110Z,1016.99
2017-05-26T06:45:18.632Z,1016.99
2017-05-26T06:45:59.139Z,1016.97
2017-05-26T06:46:39.673Z,1016.99
2017-05-26T06:47:20.253Z,1017.01
2017-05-26T06:48:00.753Z,1017.02
2017-05-26T06:48:41.286Z,1017.02
2017-05-26T06:49:21.838Z,1016.99
2017-05-26T06:50:02.372Z,1017.02
2017-05-26T06:50:42.936Z,1017
2017-05-26T06:51:23.471Z,1017.02
2017-05-26T06:52:04.002Z,1017.03
2017-05-26T06:52:44.528Z,1016.97
2017-05-26T06:53:25.028Z,1016.99
2017-05-26T06:54:05.560Z,1017.03
2017-05-26T06:54:46.087Z,1017.01
2017-05-26T06:55:26.605Z,1017.04
2017-05-26T06:56:07.127Z,1016.99
2017-05-26T06:56:47.649Z,1017.01
2017-05-26T06:57:28.159Z,1017.01
2017-05-26T06:58:08.690Z,1017.02
2017-05-26T06:58:49.217Z,1016.96
2017-05-26T06:59:29.784Z,1016.96
2017-05-26T07:00:10.317Z,1017
2017-05-26T07:00:50.854Z,1017.01
2017-05-26T07:01:31.374Z,1016.95
2017-05-26T07:02:11.909Z,1016.99
2017-05-26T07:02:52.451Z,1016.99
2017-05-26T07:03:33.016Z,1016.98
2017-05-26T07:04:13.569Z,1016.97
2017-05-26T07:04:54.108Z,1016.95
2017-05-26T07:05:34.647Z,1016.99
2017-05-26T07:06:15.197Z,1016.96
2017-05-26T07:06:55.729Z,1016.96
2017-05-26T07:07:36.246Z,1016.97
2017-05-26T07:08:16.827Z,1016.99
2017-05-26T07:08:57.373Z,1017
2017-05-26T07:09:37.888Z,1016.99
2017-05-26T07:10:18.409Z,1016.97
2017-05-26T07:10:58.933Z,1016.97
2017-05-26T07:11:39.442Z,1016.96
2017-05-26T07:12:19.982Z,1017.01
2017-05-26T07:13:00.533Z,1017
2017-05-26T07:13:41.100Z,1017.02
2017-05-26T07:14:21.608Z,1016.97
2017-05-26T07:15:02.127Z,1017.01
2017-05-26T07:15:42.645Z,1016.99
2017-05-26T07:16:23.192Z,1016.99
